sensor_id;sensor_type;location;lat;lon;timestamp;pressure;altitude;pressure_sealevel;temperature;humidity
77192;BME280;66172;48.526;8.078;2023-10-13T00:01:08;99662.78;;;18.00;60.00
77192;BME280;66172;48.526;8.078;2023-10-13T00:03:37;99665.81;;;17.84;60.26
77192;BME280;66172;48.526;8.078;2023-10-13T00:06:04;99667.75;;;17.76;61.03
77192;BME280;66172;48.526;8.078;2023-10-13T00:08:31;99665.53;;;17.96;59.70
77192;BME280;66172;48.526;8.078;2023-10-13T00:10:57;99662.44;;;18.01;59.82
77192;BME280;66172;48.526;8.078;2023-10-13T00:13:27;99659.38;;;18.17;58.92
77192;BME280;66172;48.526;8.078;2023-10-13T00:15:53;99660.59;;;18.26;59.03
77192;BME280;66172;48.526;8.078;2023-10-13T00:18:26;99654.22;;;18.08;58.87
77192;BME280;66172;48.526;8.078;2023-10-13T00:20:53;99651.00;;;18.03;58.95
77192;BME280;66172;48.526;8.078;2023-10-13T00:23:22;99648.53;;;17.83;59.24
77192;BME280;66172;48.526;8.078;2023-10-13T00:25:49;99647.16;;;17.60;60.47
77192;BME280;66172;48.526;8.078;2023-10-13T00:28:16;99649.91;;;17.60;60.79
77192;BME280;66172;48.526;8.078;2023-10-13T00:30:54;99640.41;;;17.54;60.95
77192;BME280;66172;48.526;8.078;2023-10-13T00:33:26;99648.72;;;17.57;61.22
77192;BME280;66172;48.526;8.078;2023-10-13T00:35:57;99640.81;;;17.56;61.72
77192;BME280;66172;48.526;8.078;2023-10-13T00:38:24;99641.66;;;17.60;61.71
77192;BME280;66172;48.526;8.078;2023-10-13T00:40:50;99640.16;;;17.66;61.19
77192;BME280;66172;48.526;8.078;2023-10-13T00:43:20;99643.38;;;17.78;60.57
77192;BME280;66172;48.526;8.078;2023-10-13T00:45:47;99636.75;;;17.86;60.28
77192;BME280;66172;48.526;8.078;2023-10-13T00:48:33;99638.41;;;17.98;60.21
77192;BME280;66172;48.526;8.078;2023-10-13T00:51:04;99630.19;;;18.05;59.74
77192;BME280;66172;48.526;8.078;2023-10-13T00:53:35;99635.63;;;17.94;59.91
77192;BME280;66172;48.526;8.078;2023-10-13T00:56:06;99630.94;;;17.98;60.16
77192;BME280;66172;48.526;8.078;2023-10-13T00:58:33;99628.19;;;17.98;59.88
77192;BME280;66172;48.526;8.078;2023-10-13T01:01:01;99631.34;;;18.01;59.48
77192;BME280;66172;48.526;8.078;2023-10-13T01:03:48;99625.56;;;18.20;59.28
77192;BME280;66172;48.526;8.078;2023-10-13T01:06:16;99622.84;;;18.27;59.28
77192;BME280;66172;48.526;8.078;2023-10-13T01:08:47;99631.97;;;18.38;59.37
77192;BME280;66172;48.526;8.078;2023-10-13T01:11:18;99621.34;;;18.36;59.88
77192;BME280;66172;48.526;8.078;2023-10-13T01:13:44;99619.34;;;18.33;59.71
77192;BME280;66172;48.526;8.078;2023-10-13T01:16:12;99626.44;;;18.34;59.81
77192;BME280;66172;48.526;8.078;2023-10-13T01:18:38;99629.53;;;18.22;60.14
77192;BME280;66172;48.526;8.078;2023-10-13T01:21:13;99632.31;;;18.29;60.35
77192;BME280;66172;48.526;8.078;2023-10-13T01:23:45;99631.09;;;18.23;60.65
77192;BME280;66172;48.526;8.078;2023-10-13T01:26:13;99638.94;;;18.21;61.00
77192;BME280;66172;48.526;8.078;2023-10-13T01:28:47;99632.78;;;17.84;62.16
77192;BME280;66172;48.526;8.078;2023-10-13T01:31:14;99616.63;;;17.75;62.64
77192;BME280;66172;48.526;8.078;2023-10-13T01:33:51;99621.16;;;17.54;63.56
77192;BME280;66172;48.526;8.078;2023-10-13T01:36:23;99627.25;;;17.33;64.73
77192;BME280;66172;48.526;8.078;2023-10-13T01:38:49;99624.91;;;17.35;64.69
77192;BME280;66172;48.526;8.078;2023-10-13T01:41:20;99619.63;;;17.16;65.32
77192;BME280;66172;48.526;8.078;2023-10-13T01:43:46;99619.44;;;16.98;66.30
77192;BME280;66172;48.526;8.078;2023-10-13T01:46:14;99617.03;;;16.93;66.09
77192;BME280;66172;48.526;8.078;2023-10-13T01:48:41;99610.06;;;16.99;65.65
77192;BME280;66172;48.526;8.078;2023-10-13T01:51:09;99607.63;;;17.31;63.86
77192;BME280;66172;48.526;8.078;2023-10-13T01:53:37;99600.31;;;17.09;65.40
77192;BME280;66172;48.526;8.078;2023-10-13T01:56:04;99604.41;;;16.85;66.51
77192;BME280;66172;48.526;8.078;2023-10-13T01:58:37;99599.41;;;16.61;67.72
77192;BME280;66172;48.526;8.078;2023-10-13T02:01:07;99594.91;;;16.45;68.32
77192;BME280;66172;48.526;8.078;2023-10-13T02:03:33;99596.88;;;16.48;67.83
77192;BME280;66172;48.526;8.078;2023-10-13T02:06:00;99590.59;;;16.48;67.31
77192;BME280;66172;48.526;8.078;2023-10-13T02:08:30;99598.53;;;16.53;67.25
77192;BME280;66172;48.526;8.078;2023-10-13T02:10:57;99581.50;;;16.40;67.74
77192;BME280;66172;48.526;8.078;2023-10-13T02:13:26;99582.28;;;16.41;67.57
77192;BME280;66172;48.526;8.078;2023-10-13T02:15:54;99577.50;;;16.34;67.47
77192;BME280;66172;48.526;8.078;2023-10-13T02:18:23;99576.00;;;16.40;66.95
77192;BME280;66172;48.526;8.078;2023-10-13T02:20:56;99576.97;;;16.22;67.49
77192;BME280;66172;48.526;8.078;2023-10-13T02:23:23;99562.75;;;16.16;67.13
77192;BME280;66172;48.526;8.078;2023-10-13T02:25:50;99570.81;;;16.02;68.02
77192;BME280;66172;48.526;8.078;2023-10-13T02:28:29;99564.38;;;15.91;67.96
77192;BME280;66172;48.526;8.078;2023-10-13T02:31:02;99564.38;;;15.91;68.08
77192;BME280;66172;48.526;8.078;2023-10-13T02:33:29;99558.59;;;15.96;67.96
77192;BME280;66172;48.526;8.078;2023-10-13T02:36:00;99561.97;;;16.16;67.20
77192;BME280;66172;48.526;8.078;2023-10-13T02:38:30;99559.88;;;16.06;67.89
77192;BME280;66172;48.526;8.078;2023-10-13T02:41:19;99552.00;;;16.34;67.10
77192;BME280;66172;48.526;8.078;2023-10-13T02:43:55;99544.28;;;16.43;66.00
77192;BME280;66172;48.526;8.078;2023-10-13T02:46:22;99544.25;;;16.39;66.07
77192;BME280;66172;48.526;8.078;2023-10-13T02:48:49;99537.69;;;16.51;65.14
77192;BME280;66172;48.526;8.078;2023-10-13T02:51:24;99534.56;;;16.19;65.85
77192;BME280;66172;48.526;8.078;2023-10-13T02:54:02;99538.50;;;16.52;64.80
77192;BME280;66172;48.526;8.078;2023-10-13T02:56:29;99542.41;;;16.17;66.03
77192;BME280;66172;48.526;8.078;2023-10-13T02:58:55;99538.47;;;16.15;66.05
77192;BME280;66172;48.526;8.078;2023-10-13T03:01:33;99529.63;;;15.69;67.92
77192;BME280;66172;48.526;8.078;2023-10-13T03:04:04;99531.56;;;15.45;69.21
77192;BME280;66172;48.526;8.078;2023-10-13T03:06:35;99527.47;;;15.32;69.66
77192;BME280;66172;48.526;8.078;2023-10-13T03:09:03;99526.25;;;15.07;71.00
77192;BME280;66172;48.526;8.078;2023-10-13T03:11:45;99523.84;;;15.02;71.50
77192;BME280;66172;48.526;8.078;2023-10-13T03:14:23;99522.88;;;14.91;72.35
77192;BME280;66172;48.526;8.078;2023-10-13T03:16:54;99525.97;;;14.89;72.06
77192;BME280;66172;48.526;8.078;2023-10-13T03:19:20;99522.44;;;14.89;72.38
77192;BME280;66172;48.526;8.078;2023-10-13T03:21:47;99524.81;;;14.90;72.43
77192;BME280;66172;48.526;8.078;2023-10-13T03:24:21;99517.81;;;14.93;72.09
77192;BME280;66172;48.526;8.078;2023-10-13T03:27:00;99524.25;;;15.04;71.58
77192;BME280;66172;48.526;8.078;2023-10-13T03:29:38;99523.47;;;15.04;71.36
77192;BME280;66172;48.526;8.078;2023-10-13T03:32:11;99522.16;;;15.20;70.17
77192;BME280;66172;48.526;8.078;2023-10-13T03:34:41;99529.69;;;15.23;69.92
77192;BME280;66172;48.526;8.078;2023-10-13T03:37:19;99512.66;;;15.37;69.10
77192;BME280;66172;48.526;8.078;2023-10-13T03:40:10;99512.13;;;15.51;68.67
77192;BME280;66172;48.526;8.078;2023-10-13T03:42:51;99505.88;;;15.54;68.12
77192;BME280;66172;48.526;8.078;2023-10-13T03:45:31;99507.53;;;15.58;68.04
77192;BME280;66172;48.526;8.078;2023-10-13T03:48:12;99503.00;;;15.73;67.35
77192;BME280;66172;48.526;8.078;2023-10-13T03:50:51;99497.75;;;15.90;66.85
77192;BME280;66172;48.526;8.078;2023-10-13T03:53:46;99503.16;;;15.83;67.38
77192;BME280;66172;48.526;8.078;2023-10-13T03:56:27;99501.53;;;15.79;67.32
77192;BME280;66172;48.526;8.078;2023-10-13T03:58:55;99508.78;;;15.94;66.57
77192;BME280;66172;48.526;8.078;2023-10-13T04:01:26;99506.50;;;15.70;67.57
77192;BME280;66172;48.526;8.078;2023-10-13T04:04:12;99505.75;;;15.73;67.27
77192;BME280;66172;48.526;8.078;2023-10-13T04:06:38;99500.97;;;15.40;68.71
77192;BME280;66172;48.526;8.078;2023-10-13T04:12:01;99493.16;;;15.42;68.82
77192;BME280;66172;48.526;8.078;2023-10-13T04:14:31;99492.13;;;15.50;68.63
77192;BME280;66172;48.526;8.078;2023-10-13T04:17:24;99496.63;;;15.39;68.41
77192;BME280;66172;48.526;8.078;2023-10-13T04:19:57;99494.53;;;15.55;68.32
77192;BME280;66172;48.526;8.078;2023-10-13T04:22:37;99493.69;;;15.25;69.24
77192;BME280;66172;48.526;8.078;2023-10-13T04:25:31;99487.72;;;15.45;68.27
77192;BME280;66172;48.526;8.078;2023-10-13T04:28:08;99487.94;;;15.33;68.46
77192;BME280;66172;48.526;8.078;2023-10-13T04:30:47;99492.13;;;15.50;68.00
77192;BME280;66172;48.526;8.078;2023-10-13T04:33:32;99490.94;;;15.25;68.88
77192;BME280;66172;48.526;8.078;2023-10-13T04:36:05;99490.19;;;15.51;67.89
77192;BME280;66172;48.526;8.078;2023-10-13T04:38:46;99479.69;;;15.30;68.60
77192;BME280;66172;48.526;8.078;2023-10-13T04:41:34;99481.59;;;15.03;69.80
77192;BME280;66172;48.526;8.078;2023-10-13T04:44:24;99479.28;;;15.05;69.68
77192;BME280;66172;48.526;8.078;2023-10-13T04:47:09;99478.94;;;15.33;68.63
77192;BME280;66172;48.526;8.078;2023-10-13T04:49:38;99476.16;;;15.07;69.58
77192;BME280;66172;48.526;8.078;2023-10-13T04:52:13;99470.56;;;15.22;69.37
77192;BME280;66172;48.526;8.078;2023-10-13T04:54:59;99470.31;;;15.34;68.68
77192;BME280;66172;48.526;8.078;2023-10-13T04:57:57;99471.44;;;15.04;70.06
77192;BME280;66172;48.526;8.078;2023-10-13T05:00:36;99470.13;;;15.20;69.34
77192;BME280;66172;48.526;8.078;2023-10-13T05:03:20;99467.91;;;15.29;68.62
77192;BME280;66172;48.526;8.078;2023-10-13T05:06:15;99468.50;;;15.16;69.01
77192;BME280;66172;48.526;8.078;2023-10-13T05:09:07;99468.66;;;15.26;68.78
77192;BME280;66172;48.526;8.078;2023-10-13T05:11:52;99455.72;;;15.00;69.75
77192;BME280;66172;48.526;8.078;2023-10-13T05:14:36;99459.91;;;15.17;69.37
77192;BME280;66172;48.526;8.078;2023-10-13T05:17:21;99453.53;;;15.36;68.45
77192;BME280;66172;48.526;8.078;2023-10-13T05:20:05;99454.38;;;15.40;68.16
77192;BME280;66172;48.526;8.078;2023-10-13T05:22:50;99468.28;;;15.28;68.77
77192;BME280;66172;48.526;8.078;2023-10-13T05:25:36;99450.22;;;15.23;68.61
77192;BME280;66172;48.526;8.078;2023-10-13T05:28:20;99456.97;;;15.29;68.32
77192;BME280;66172;48.526;8.078;2023-10-13T05:31:04;99445.31;;;15.36;67.95
77192;BME280;66172;48.526;8.078;2023-10-13T05:33:59;99454.66;;;15.58;67.18
77192;BME280;66172;48.526;8.078;2023-10-13T05:36:43;99459.69;;;15.56;67.40
77192;BME280;66172;48.526;8.078;2023-10-13T05:39:28;99452.16;;;15.49;67.44
77192;BME280;66172;48.526;8.078;2023-10-13T05:42:12;99448.50;;;15.41;67.86
77192;BME280;66172;48.526;8.078;2023-10-13T05:44:57;99446.44;;;15.58;67.27
77192;BME280;66172;48.526;8.078;2023-10-13T05:47:41;99444.38;;;15.51;67.52
77192;BME280;66172;48.526;8.078;2023-10-13T05:50:10;99447.94;;;15.55;67.22
77192;BME280;66172;48.526;8.078;2023-10-13T05:52:49;99451.81;;;15.51;67.49
77192;BME280;66172;48.526;8.078;2023-10-13T05:55:28;99440.53;;;15.29;68.32
77192;BME280;66172;48.526;8.078;2023-10-13T05:58:13;99444.06;;;15.30;68.38
77192;BME280;66172;48.526;8.078;2023-10-13T06:00:58;99445.69;;;15.08;69.13
77192;BME280;66172;48.526;8.078;2023-10-13T06:03:42;99447.69;;;15.11;69.43
77192;BME280;66172;48.526;8.078;2023-10-13T06:06:27;99447.16;;;15.28;68.46
77192;BME280;66172;48.526;8.078;2023-10-13T06:09:11;99444.78;;;15.53;67.69
77192;BME280;66172;48.526;8.078;2023-10-13T06:11:56;99439.09;;;15.65;66.66
77192;BME280;66172;48.526;8.078;2023-10-13T06:14:40;99449.16;;;15.58;66.92
77192;BME280;66172;48.526;8.078;2023-10-13T06:17:24;99447.78;;;15.71;66.38
77192;BME280;66172;48.526;8.078;2023-10-13T06:20:09;99448.25;;;15.80;66.09
77192;BME280;66172;48.526;8.078;2023-10-13T06:22:53;99457.31;;;15.84;66.12
77192;BME280;66172;48.526;8.078;2023-10-13T06:25:38;99450.09;;;16.02;65.40
77192;BME280;66172;48.526;8.078;2023-10-13T06:28:23;99450.94;;;16.06;65.30
77192;BME280;66172;48.526;8.078;2023-10-13T06:31:07;99448.41;;;16.24;64.77
77192;BME280;66172;48.526;8.078;2023-10-13T06:33:36;99451.75;;;16.47;64.17
77192;BME280;66172;48.526;8.078;2023-10-13T06:36:07;99456.34;;;16.73;63.04
77192;BME280;66172;48.526;8.078;2023-10-13T06:38:38;99458.38;;;17.30;60.88
77192;BME280;66172;48.526;8.078;2023-10-13T06:41:08;99452.06;;;17.98;59.02
77192;BME280;66172;48.526;8.078;2023-10-13T06:43:35;99455.44;;;18.61;57.22
77192;BME280;66172;48.526;8.078;2023-10-13T06:46:12;99454.66;;;18.99;56.07
77192;BME280;66172;48.526;8.078;2023-10-13T06:48:49;99461.72;;;19.21;54.73
77192;BME280;66172;48.526;8.078;2023-10-13T06:51:19;99462.09;;;19.34;54.67
77192;BME280;66172;48.526;8.078;2023-10-13T06:53:48;99457.97;;;19.99;52.06
77192;BME280;66172;48.526;8.078;2023-10-13T06:56:15;99460.63;;;20.23;51.93
77192;BME280;66172;48.526;8.078;2023-10-13T06:59:04;99465.19;;;21.13;49.23
77192;BME280;66172;48.526;8.078;2023-10-13T07:01:33;99458.72;;;21.68;47.89
77192;BME280;66172;48.526;8.078;2023-10-13T07:04:09;99454.91;;;22.22;46.91
77192;BME280;66172;48.526;8.078;2023-10-13T07:06:42;99454.63;;;22.44;46.06
77192;BME280;66172;48.526;8.078;2023-10-13T07:09:18;99453.31;;;22.52;45.78
77192;BME280;66172;48.526;8.078;2023-10-13T07:12:03;99456.06;;;23.28;44.01
77192;BME280;66172;48.526;8.078;2023-10-13T07:14:34;99450.72;;;23.37;43.27
77192;BME280;66172;48.526;8.078;2023-10-13T07:17:04;99457.28;;;22.20;45.79
77192;BME280;66172;48.526;8.078;2023-10-13T07:19:31;99459.81;;;21.36;47.33
77192;BME280;66172;48.526;8.078;2023-10-13T07:21:59;99462.53;;;21.43;47.93
77192;BME280;66172;48.526;8.078;2023-10-13T07:24:28;99458.28;;;21.35;47.87
77192;BME280;66172;48.526;8.078;2023-10-13T07:26:58;99466.22;;;21.30;47.95
77192;BME280;66172;48.526;8.078;2023-10-13T07:29:33;99455.31;;;21.90;46.69
77192;BME280;66172;48.526;8.078;2023-10-13T07:32:02;99457.44;;;22.10;46.43
77192;BME280;66172;48.526;8.078;2023-10-13T07:34:29;99453.38;;;22.48;45.46
77192;BME280;66172;48.526;8.078;2023-10-13T07:36:58;99451.00;;;22.73;44.88
77192;BME280;66172;48.526;8.078;2023-10-13T07:39:33;99449.97;;;23.14;43.01
77192;BME280;66172;48.526;8.078;2023-10-13T07:42:00;99450.06;;;23.30;43.40
77192;BME280;66172;48.526;8.078;2023-10-13T07:44:33;99446.75;;;23.38;42.72
77192;BME280;66172;48.526;8.078;2023-10-13T07:47:00;99442.13;;;23.32;43.41
77192;BME280;66172;48.526;8.078;2023-10-13T07:49:37;99451.81;;;23.44;43.46
77192;BME280;66172;48.526;8.078;2023-10-13T07:52:05;99444.59;;;23.69;41.92
77192;BME280;66172;48.526;8.078;2023-10-13T07:55:00;99444.94;;;24.11;40.86
77192;BME280;66172;48.526;8.078;2023-10-13T07:57:42;99437.53;;;24.24;41.06
77192;BME280;66172;48.526;8.078;2023-10-13T08:00:21;99440.84;;;24.35;41.12
77192;BME280;66172;48.526;8.078;2023-10-13T08:02:59;99440.72;;;24.58;41.21
77192;BME280;66172;48.526;8.078;2023-10-13T08:05:37;99438.41;;;24.73;40.85
77192;BME280;66172;48.526;8.078;2023-10-13T08:08:22;99429.59;;;24.74;40.45
77192;BME280;66172;48.526;8.078;2023-10-13T08:10:52;99440.47;;;24.69;40.62
77192;BME280;66172;48.526;8.078;2023-10-13T08:13:22;99435.38;;;25.00;40.34
77192;BME280;66172;48.526;8.078;2023-10-13T08:15:48;99440.41;;;25.21;38.75
77192;BME280;66172;48.526;8.078;2023-10-13T08:18:14;99436.44;;;25.34;39.61
77192;BME280;66172;48.526;8.078;2023-10-13T08:20:57;99440.22;;;25.28;39.51
77192;BME280;66172;48.526;8.078;2023-10-13T08:23:32;99443.53;;;25.68;36.67
77192;BME280;66172;48.526;8.078;2023-10-13T08:26:16;99445.94;;;26.23;37.03
77192;BME280;66172;48.526;8.078;2023-10-13T08:29:02;99435.44;;;26.40;35.34
77192;BME280;66172;48.526;8.078;2023-10-13T08:31:44;99436.59;;;26.55;35.32
77192;BME280;66172;48.526;8.078;2023-10-13T08:34:15;99426.94;;;27.07;35.76
77192;BME280;66172;48.526;8.078;2023-10-13T08:36:48;99417.28;;;27.20;32.28
77192;BME280;66172;48.526;8.078;2023-10-13T08:39:14;99432.78;;;27.68;34.08
77192;BME280;66172;48.526;8.078;2023-10-13T08:41:59;99424.88;;;27.98;33.40
77192;BME280;66172;48.526;8.078;2023-10-13T08:44:44;99419.28;;;27.98;31.49
77192;BME280;66172;48.526;8.078;2023-10-13T08:47:14;99433.09;;;28.45;30.16
77192;BME280;66172;48.526;8.078;2023-10-13T08:49:44;99416.72;;;28.34;29.21
77192;BME280;66172;48.526;8.078;2023-10-13T08:52:17;99417.63;;;28.00;27.53
77192;BME280;66172;48.526;8.078;2023-10-13T08:55:02;99408.44;;;28.61;26.82
77192;BME280;66172;48.526;8.078;2023-10-13T08:58:00;99410.97;;;28.68;26.13
77192;BME280;66172;48.526;8.078;2023-10-13T09:00:40;99409.69;;;29.18;26.46
77192;BME280;66172;48.526;8.078;2023-10-13T09:03:39;99415.00;;;29.35;26.03
77192;BME280;66172;48.526;8.078;2023-10-13T09:06:10;99409.22;;;29.56;25.39
77192;BME280;66172;48.526;8.078;2023-10-13T09:08:40;99400.06;;;29.47;24.93
77192;BME280;66172;48.526;8.078;2023-10-13T09:11:25;99400.38;;;29.58;24.46
77192;BME280;66172;48.526;8.078;2023-10-13T09:13:53;99402.47;;;28.99;24.87
77192;BME280;66172;48.526;8.078;2023-10-13T09:16:19;99397.09;;;29.32;24.80
77192;BME280;66172;48.526;8.078;2023-10-13T09:19:04;99405.31;;;29.17;24.05
77192;BME280;66172;48.526;8.078;2023-10-13T09:21:40;99401.16;;;28.64;23.99
77192;BME280;66172;48.526;8.078;2023-10-13T09:24:08;99397.09;;;28.65;24.61
77192;BME280;66172;48.526;8.078;2023-10-13T09:26:53;99397.34;;;27.87;25.23
77192;BME280;66172;48.526;8.078;2023-10-13T09:29:22;99399.16;;;27.81;25.25
77192;BME280;66172;48.526;8.078;2023-10-13T09:31:59;99391.94;;;27.93;24.76
77192;BME280;66172;48.526;8.078;2023-10-13T09:34:29;99391.94;;;28.14;24.85
77192;BME280;66172;48.526;8.078;2023-10-13T09:36:59;99386.63;;;28.07;24.57
77192;BME280;66172;48.526;8.078;2023-10-13T09:39:25;99382.44;;;28.43;25.25
77192;BME280;66172;48.526;8.078;2023-10-13T09:42:21;99377.91;;;29.03;24.26
77192;BME280;66172;48.526;8.078;2023-10-13T09:44:49;99377.78;;;29.16;24.44
77192;BME280;66172;48.526;8.078;2023-10-13T09:47:22;99379.63;;;28.92;24.49
77192;BME280;66172;48.526;8.078;2023-10-13T09:50:04;99373.38;;;28.88;24.92
77192;BME280;66172;48.526;8.078;2023-10-13T09:52:40;99366.09;;;29.08;23.52
77192;BME280;66172;48.526;8.078;2023-10-13T09:55:19;99380.16;;;29.45;24.03
77192;BME280;66172;48.526;8.078;2023-10-13T09:57:57;99372.94;;;29.89;23.41
77192;BME280;66172;48.526;8.078;2023-10-13T10:00:29;99372.31;;;29.67;23.49
77192;BME280;66172;48.526;8.078;2023-10-13T10:03:23;99366.31;;;30.52;22.92
77192;BME280;66172;48.526;8.078;2023-10-13T10:06:05;99365.69;;;30.06;22.44
77192;BME280;66172;48.526;8.078;2023-10-13T10:08:42;99367.84;;;30.20;23.00
77192;BME280;66172;48.526;8.078;2023-10-13T10:14:09;99358.56;;;30.38;22.26
77192;BME280;66172;48.526;8.078;2023-10-13T10:17:07;99354.69;;;29.94;22.89
77192;BME280;66172;48.526;8.078;2023-10-13T10:19:48;99351.00;;;29.69;23.37
77192;BME280;66172;48.526;8.078;2023-10-13T10:22:28;99350.69;;;29.04;24.05
77192;BME280;66172;48.526;8.078;2023-10-13T10:24:57;99353.56;;;30.00;24.40
77192;BME280;66172;48.526;8.078;2023-10-13T10:27:25;99344.53;;;29.96;23.37
77192;BME280;66172;48.526;8.078;2023-10-13T10:29:54;99349.88;;;29.76;23.93
77192;BME280;66172;48.526;8.078;2023-10-13T10:32:20;99343.84;;;28.96;25.28
77192;BME280;66172;48.526;8.078;2023-10-13T10:34:45;99343.16;;;29.73;23.71
77192;BME280;66172;48.526;8.078;2023-10-13T10:37:12;99346.53;;;29.27;23.54
77192;BME280;66172;48.526;8.078;2023-10-13T10:39:38;99343.81;;;29.68;23.84
77192;BME280;66172;48.526;8.078;2023-10-13T10:42:14;99332.56;;;30.29;23.31
77192;BME280;66172;48.526;8.078;2023-10-13T10:44:41;99326.91;;;30.38;22.58
77192;BME280;66172;48.526;8.078;2023-10-13T10:47:15;99333.97;;;31.43;22.54
77192;BME280;66172;48.526;8.078;2023-10-13T10:49:48;99328.00;;;32.08;21.85
77192;BME280;66172;48.526;8.078;2023-10-13T10:52:17;99312.00;;;31.85;21.90
77192;BME280;66172;48.526;8.078;2023-10-13T10:54:47;99310.56;;;31.07;22.63
77192;BME280;66172;48.526;8.078;2023-10-13T10:57:23;99321.03;;;31.75;22.03
77192;BME280;66172;48.526;8.078;2023-10-13T10:59:55;99314.31;;;32.51;22.16
77192;BME280;66172;48.526;8.078;2023-10-13T11:02:40;99306.94;;;32.74;22.07
77192;BME280;66172;48.526;8.078;2023-10-13T11:05:07;99304.47;;;32.81;21.72
77192;BME280;66172;48.526;8.078;2023-10-13T11:07:35;99303.34;;;33.39;21.95
77192;BME280;66172;48.526;8.078;2023-10-13T11:10:08;99300.91;;;33.78;21.27
77192;BME280;66172;48.526;8.078;2023-10-13T11:12:57;99293.53;;;34.18;20.38
77192;BME280;66172;48.526;8.078;2023-10-13T11:15:44;99291.13;;;34.05;20.89
77192;BME280;66172;48.526;8.078;2023-10-13T11:18:13;99282.06;;;34.32;20.91
77192;BME280;66172;48.526;8.078;2023-10-13T11:20:48;99278.84;;;34.50;19.61
77192;BME280;66172;48.526;8.078;2023-10-13T11:23:20;99269.44;;;34.70;19.14
77192;BME280;66172;48.526;8.078;2023-10-13T11:26:00;99267.06;;;34.57;19.41
77192;BME280;66172;48.526;8.078;2023-10-13T11:28:26;99263.63;;;34.00;19.77
77192;BME280;66172;48.526;8.078;2023-10-13T11:30:57;99256.91;;;34.34;19.48
77192;BME280;66172;48.526;8.078;2023-10-13T11:33:53;99258.28;;;34.07;20.86
77192;BME280;66172;48.526;8.078;2023-10-13T11:36:22;99254.31;;;32.85;19.91
77192;BME280;66172;48.526;8.078;2023-10-13T11:38:57;99250.41;;;33.03;20.95
77192;BME280;66172;48.526;8.078;2023-10-13T11:41:23;99242.53;;;33.07;22.18
77192;BME280;66172;48.526;8.078;2023-10-13T11:43:51;99233.72;;;33.51;21.09
77192;BME280;66172;48.526;8.078;2023-10-13T11:46:23;99224.13;;;33.11;21.50
77192;BME280;66172;48.526;8.078;2023-10-13T11:49:08;99219.25;;;32.66;20.85
77192;BME280;66172;48.526;8.078;2023-10-13T11:52:07;99220.88;;;33.19;21.82
77192;BME280;66172;48.526;8.078;2023-10-13T11:54:42;99225.94;;;33.14;21.24
77192;BME280;66172;48.526;8.078;2023-10-13T11:57:08;99221.41;;;33.23;21.22
77192;BME280;66172;48.526;8.078;2023-10-13T11:59:34;99219.94;;;33.58;21.54
77192;BME280;66172;48.526;8.078;2023-10-13T12:02:06;99208.00;;;33.43;21.29
77192;BME280;66172;48.526;8.078;2023-10-13T12:04:50;99207.34;;;33.54;21.38
77192;BME280;66172;48.526;8.078;2023-10-13T12:07:29;99206.16;;;33.35;21.52
77192;BME280;66172;48.526;8.078;2023-10-13T12:10:14;99199.78;;;32.88;22.45
77192;BME280;66172;48.526;8.078;2023-10-13T12:13:01;99195.63;;;33.04;21.49
77192;BME280;66172;48.526;8.078;2023-10-13T12:15:33;99197.50;;;33.12;21.65
77192;BME280;66172;48.526;8.078;2023-10-13T12:18:12;99187.03;;;32.93;21.70
77192;BME280;66172;48.526;8.078;2023-10-13T12:20:40;99186.63;;;33.05;21.90
77192;BME280;66172;48.526;8.078;2023-10-13T12:23:12;99193.00;;;33.00;20.91
77192;BME280;66172;48.526;8.078;2023-10-13T12:25:43;99182.88;;;32.88;21.62
77192;BME280;66172;48.526;8.078;2023-10-13T12:28:31;99181.00;;;33.05;21.92
77192;BME280;66172;48.526;8.078;2023-10-13T12:31:04;99181.75;;;33.00;21.18
77192;BME280;66172;48.526;8.078;2023-10-13T12:33:32;99181.31;;;31.86;21.60
77192;BME280;66172;48.526;8.078;2023-10-13T12:36:06;99189.06;;;31.56;22.55
77192;BME280;66172;48.526;8.078;2023-10-13T12:38:36;99174.44;;;31.38;22.46
77192;BME280;66172;48.526;8.078;2023-10-13T12:41:05;99173.44;;;31.70;22.54
77192;BME280;66172;48.526;8.078;2023-10-13T12:43:50;99169.72;;;30.47;22.86
77192;BME280;66172;48.526;8.078;2023-10-13T12:46:34;99159.28;;;30.77;24.11
77192;BME280;66172;48.526;8.078;2023-10-13T12:49:18;99166.94;;;30.76;24.06
77192;BME280;66172;48.526;8.078;2023-10-13T12:52:03;99158.63;;;30.82;24.00
77192;BME280;66172;48.526;8.078;2023-10-13T12:54:29;99148.56;;;30.75;23.48
77192;BME280;66172;48.526;8.078;2023-10-13T12:57:01;99144.00;;;30.15;24.14
77192;BME280;66172;48.526;8.078;2023-10-13T12:59:28;99150.91;;;29.58;24.46
77192;BME280;66172;48.526;8.078;2023-10-13T13:01:54;99131.28;;;29.91;24.88
77192;BME280;66172;48.526;8.078;2023-10-13T13:04:20;99130.25;;;30.03;24.40
77192;BME280;66172;48.526;8.078;2023-10-13T13:06:50;99125.00;;;30.34;24.45
77192;BME280;66172;48.526;8.078;2023-10-13T13:09:16;99121.31;;;30.66;25.10
77192;BME280;66172;48.526;8.078;2023-10-13T13:11:54;99114.00;;;30.98;24.68
77192;BME280;66172;48.526;8.078;2023-10-13T13:14:24;99106.63;;;31.01;23.91
77192;BME280;66172;48.526;8.078;2023-10-13T13:16:56;99101.78;;;31.16;23.93
77192;BME280;66172;48.526;8.078;2023-10-13T13:19:32;99098.13;;;31.45;24.44
77192;BME280;66172;48.526;8.078;2023-10-13T13:22:02;99092.22;;;31.78;24.15
77192;BME280;66172;48.526;8.078;2023-10-13T13:24:31;99101.63;;;31.75;22.79
77192;BME280;66172;48.526;8.078;2023-10-13T13:26:57;99092.63;;;31.70;22.30
77192;BME280;66172;48.526;8.078;2023-10-13T13:29:30;99085.88;;;31.62;21.78
77192;BME280;66172;48.526;8.078;2023-10-13T13:31:57;99088.75;;;31.33;22.16
77192;BME280;66172;48.526;8.078;2023-10-13T13:34:23;99086.28;;;31.20;22.46
77192;BME280;66172;48.526;8.078;2023-10-13T13:36:48;99083.28;;;31.44;21.41
77192;BME280;66172;48.526;8.078;2023-10-13T13:39:19;99080.88;;;31.02;21.34
77192;BME280;66172;48.526;8.078;2023-10-13T13:41:55;99075.13;;;30.53;21.58
77192;BME280;66172;48.526;8.078;2023-10-13T13:44:25;99079.69;;;30.80;22.97
77192;BME280;66172;48.526;8.078;2023-10-13T13:47:01;99072.03;;;30.95;22.04